createdAt,value
2022-08-05T00:00:18.578Z,96167.63
2022-08-05T00:02:51.358Z,96169.53
2022-08-05T00:06:01.821Z,96165.41
2022-08-05T00:08:32.901Z,96162.06
2022-08-05T00:11:01.348Z,96157.13
2022-08-05T00:13:39.478Z,96165.25
2022-08-05T00:16:10.954Z,96157.97
2022-08-05T00:18:42.204Z,96157.97
2022-08-05T00:21:09.313Z,96164.44
2022-08-05T00:23:45.700Z,96151.16
2022-08-05T00:26:15.115Z,96157.00
2022-08-05T00:28:43.756Z,96145.59
2022-08-05T00:31:13.020Z,96144.41
2022-08-05T00:34:55.795Z,96141.09
2022-08-05T00:37:10.377Z,96140.06
2022-08-05T00:39:14.514Z,96142.16
2022-08-05T00:41:46.848Z,96127.00
2022-08-05T00:44:18.999Z,96135.13
2022-08-05T00:46:47.642Z,96141.78
2022-08-05T00:49:21.086Z,96132.25
2022-08-05T00:51:51.570Z,96130.59
2022-08-05T00:54:19.422Z,96136.47
2022-08-05T00:56:51.776Z,96139.88
2022-08-05T00:59:18.746Z,96131.97
2022-08-05T01:01:48.411Z,96122.44
2022-08-05T01:04:15.986Z,96121.03
2022-08-05T01:06:51.715Z,96118.53
2022-08-05T01:09:19.944Z,96123.59
2022-08-05T01:11:51.745Z,96122.53
2022-08-05T01:14:27.721Z,96115.50
2022-08-05T01:16:55.248Z,96105.97
2022-08-05T01:19:30.192Z,96118.50
2022-08-05T01:22:34.857Z,96118.34
2022-08-05T01:25:39.603Z,96121.50
2022-08-05T01:28:13.913Z,96113.59
2022-08-05T01:30:55.102Z,96114.06
2022-08-05T01:33:26.365Z,96117.00
2022-08-05T01:35:57.427Z,96118.88
2022-08-05T01:38:29.097Z,96113.69
2022-08-05T01:41:01.392Z,96105.00
2022-08-05T01:43:29.836Z,96106.03
2022-08-05T01:45:57.930Z,96110.84
2022-08-05T01:48:27.538Z,96104.22
2022-08-05T01:50:56.912Z,96103.16
2022-08-05T01:53:54.951Z,96107.97
2022-08-05T01:58:11.648Z,96101.38
2022-08-05T01:59:09.900Z,96097.81
2022-08-05T02:01:40.361Z,96107.00
2022-08-05T02:04:10.219Z,96104.72
2022-08-05T02:06:39.004Z,96103.91
2022-08-05T02:09:07.016Z,96099.78
2022-08-05T02:11:48.120Z,96103.53
2022-08-05T02:14:44.555Z,96100.47
2022-08-05T02:18:32.173Z,96091.75
2022-08-05T02:20:33.836Z,96095.13
2022-08-05T02:23:10.856Z,96097.44
2022-08-05T02:25:49.345Z,96088.78
2022-08-05T02:28:28.889Z,96101.63
2022-08-05T02:31:02.408Z,96083.44
2022-08-05T02:33:38.758Z,96084.72
2022-08-05T02:36:15.662Z,96083.28
2022-08-05T02:38:53.492Z,96074.78
2022-08-05T02:41:22.796Z,96069.00
2022-08-05T02:44:02.626Z,96080.03
2022-08-05T02:46:35.240Z,96074.63
2022-08-05T02:49:02.722Z,96068.66
2022-08-05T02:52:02.985Z,96064.28
2022-08-05T02:54:35.794Z,96072.38
2022-08-05T02:57:10.286Z,96070.94
2022-08-05T02:59:54.356Z,96070.72
2022-08-05T03:02:27.480Z,96071.19
2022-08-05T03:04:57.527Z,96072.66
2022-08-05T03:08:00.559Z,96075.38
2022-08-05T03:10:15.684Z,96069.97
2022-08-05T03:12:51.746Z,96079.09
2022-08-05T03:15:20.203Z,96084.72
2022-08-05T03:17:46.930Z,96082.25
2022-08-05T03:20:13.972Z,96079.56
2022-08-05T03:22:44.226Z,96086.59
2022-08-05T03:25:32.741Z,96071.47
2022-08-05T03:28:08.615Z,96065.91
2022-08-05T03:30:36.824Z,96077.13
2022-08-05T03:33:07.391Z,96074.06
2022-08-05T03:35:41.130Z,96070.75
2022-08-05T03:38:11.068Z,96071.81
2022-08-05T03:40:45.114Z,96072.03
2022-08-05T03:43:58.603Z,96064.06
2022-08-05T03:46:01.860Z,96066.13
2022-08-05T03:48:29.952Z,96065.72
2022-08-05T03:52:37.709Z,96060.16
2022-08-05T03:56:04.278Z,96063.22
2022-08-05T03:56:47.332Z,96069.91
2022-08-05T03:59:54.765Z,96063.09
2022-08-05T04:02:38.271Z,96064.97
2022-08-05T04:05:09.681Z,96063.34
2022-08-05T04:07:53.081Z,96064.75
2022-08-05T04:10:27.893Z,96063.50
2022-08-05T04:12:55.533Z,96061.25
2022-08-05T04:15:25.697Z,96063.34
2022-08-05T04:17:59.882Z,96057.97
2022-08-05T04:20:26.858Z,96067.25
2022-08-05T04:22:53.506Z,96063.72
2022-08-05T04:25:24.166Z,96067.63
2022-08-05T04:28:11.450Z,96068.47
2022-08-05T04:30:39.759Z,96074.22
2022-08-05T04:33:06.515Z,96069.25
2022-08-05T04:36:11.290Z,96069.25
2022-08-05T04:38:21.152Z,96076.09
2022-08-05T04:40:50.735Z,96065.31
2022-08-05T04:43:18.256Z,96060.50
2022-08-05T04:45:55.638Z,96069.81
2022-08-05T04:48:28.145Z,96070.44
2022-08-05T04:51:01.751Z,96066.47
2022-08-05T04:53:36.701Z,96060.41
2022-08-05T04:56:32.356Z,96057.47
2022-08-05T04:58:54.706Z,96048.75
2022-08-05T05:02:06.279Z,96050.19
2022-08-05T05:04:08.421Z,96055.13
2022-08-05T05:06:43.987Z,96047.19
2022-08-05T05:09:17.627Z,96048.41
2022-08-05T05:11:54.138Z,96046.69
2022-08-05T05:14:27.895Z,96046.22
2022-08-05T05:16:59.926Z,96047.22
2022-08-05T05:19:36.433Z,96045.50
2022-08-05T05:22:23.636Z,96052.84
2022-08-05T05:24:50.863Z,96053.63
2022-08-05T05:27:45.867Z,96053.16
2022-08-05T05:30:31.482Z,96060.09
2022-08-05T05:33:14.189Z,96044.44
2022-08-05T05:35:47.435Z,96041.66
2022-08-05T05:38:22.716Z,96043.16
2022-08-05T05:40:54.424Z,96038.38
2022-08-05T05:43:57.548Z,96041.34
2022-08-05T05:46:15.875Z,96042.78
2022-08-05T05:48:47.716Z,96037.97
2022-08-05T05:51:27.910Z,96037.28
2022-08-05T05:53:58.785Z,96043.84
2022-08-05T05:56:34.803Z,96037.94
2022-08-05T05:59:07.371Z,96038.84
2022-08-05T06:01:37.772Z,96039.50
2022-08-05T06:04:12.770Z,96037.75
2022-08-05T06:06:41.569Z,96033.41
2022-08-05T06:09:08.911Z,96032.50
2022-08-05T06:11:43.597Z,96023.94
2022-08-05T06:14:28.864Z,96031.66
2022-08-05T06:16:56.979Z,96030.44
2022-08-05T06:19:34.120Z,96023.41
2022-08-05T06:22:07.691Z,96018.84
2022-08-05T06:24:41.337Z,96016.97
2022-08-05T06:27:17.172Z,96019.41
2022-08-05T06:30:04.602Z,96019.44
2022-08-05T06:32:43.824Z,96025.16
2022-08-05T06:35:21.698Z,96026.53
2022-08-05T06:38:04.261Z,96020.50
2022-08-05T06:40:36.902Z,96014.19
2022-08-05T06:43:57.506Z,96023.19
2022-08-05T06:46:04.007Z,96023.94
2022-08-05T06:48:53.526Z,96016.84
2022-08-05T06:51:29.559Z,96020.66
2022-08-05T06:54:01.717Z,96018.09
2022-08-05T06:56:29.111Z,96018.84
2022-08-05T06:58:55.906Z,96010.38
2022-08-05T07:01:22.868Z,96011.13
2022-08-05T07:03:49.764Z,96012.38
2022-08-05T07:06:17.504Z,96017.22
2022-08-05T07:08:54.507Z,96012.66
2022-08-05T07:11:25.631Z,96007.28
2022-08-05T07:14:20.706Z,95998.25
2022-08-05T07:17:58.837Z,96007.34
2022-08-05T07:20:31.655Z,95997.88
2022-08-05T07:22:34.587Z,95993.34
2022-08-05T07:25:22.717Z,95994.38
2022-08-05T07:27:58.180Z,95988.22
2022-08-05T07:30:33.332Z,95986.19
2022-08-05T07:33:09.286Z,95988.34
2022-08-05T07:36:03.999Z,95997.03
2022-08-05T07:38:33.677Z,95988.84
2022-08-05T07:42:06.830Z,95983.81
2022-08-05T07:43:56.698Z,95980.69
2022-08-05T07:46:28.910Z,95982.81
2022-08-05T07:49:02.504Z,95978.88
2022-08-05T07:51:36.930Z,95978.28
2022-08-05T07:54:05.216Z,95980.69
2022-08-05T07:57:02.875Z,95977.66
2022-08-05T07:59:23.299Z,95978.34
2022-08-05T08:02:07.337Z,95974.78
2022-08-05T08:04:43.010Z,95978.25
2022-08-05T08:07:12.306Z,95982.47
2022-08-05T08:09:38.992Z,95978.31
2022-08-05T08:12:16.943Z,95981.50
2022-08-05T08:14:52.817Z,95981.09
2022-08-05T08:17:21.481Z,95982.56
2022-08-05T08:20:22.275Z,95984.94
2022-08-05T08:22:35.842Z,95982.09
2022-08-05T08:25:03.914Z,95973.16
2022-08-05T08:27:47.588Z,95974.53
2022-08-05T08:30:30.028Z,95972.09
2022-08-05T08:33:04.375Z,95974.53
2022-08-05T08:35:41.472Z,95973.97
2022-08-05T08:38:18.920Z,95974.81
2022-08-05T08:41:06.478Z,95968.91
2022-08-05T08:45:23.609Z,95973.34
2022-08-05T08:46:24.092Z,95972.13
2022-08-05T08:49:08.100Z,95966.81
2022-08-05T08:52:03.454Z,95967.44
2022-08-05T08:54:29.289Z,95968.88
2022-08-05T08:56:56.731Z,95964.69
2022-08-05T08:59:27.650Z,95964.56
2022-08-05T09:02:04.502Z,95960.41
2022-08-05T09:04:58.467Z,95958.09
2022-08-05T09:07:28.441Z,95956.13
2022-08-05T09:09:56.061Z,95961.25
2022-08-05T09:12:27.270Z,95952.94
2022-08-05T09:15:04.862Z,95951.03
2022-08-05T09:17:40.648Z,95950.84
2022-08-05T09:20:11.515Z,95947.63
2022-08-05T09:23:07.770Z,95949.13
2022-08-05T09:26:02.418Z,95955.03
2022-08-05T09:28:31.592Z,95953.00
2022-08-05T09:31:22.199Z,95951.69
2022-08-05T09:33:56.123Z,95948.16
2022-08-05T09:36:27.416Z,95942.50
2022-08-05T09:39:16.551Z,95940.38
2022-08-05T09:41:58.698Z,95939.94
2022-08-05T09:44:46.114Z,95945.41
2022-08-05T09:47:36.432Z,95934.22
2022-08-05T09:50:18.037Z,95933.63
2022-08-05T09:53:01.033Z,95930.28
2022-08-05T09:55:57.129Z,95927.38
2022-08-05T09:58:15.739Z,95928.97
2022-08-05T10:01:14.811Z,95921.22
2022-08-05T10:04:00.424Z,95926.22
2022-08-05T10:06:28.181Z,95917.13
2022-08-05T10:08:55.778Z,95929.47
2022-08-05T10:11:22.980Z,95922.97
2022-08-05T10:13:54.626Z,95915.34
2022-08-05T10:16:37.921Z,95906.59
2022-08-05T10:19:10.129Z,95907.25
2022-08-05T10:21:40.118Z,95901.38
2022-08-05T10:24:10.910Z,95897.78
2022-08-05T10:26:51.823Z,95898.78
2022-08-05T10:29:23.982Z,95897.78
2022-08-05T10:32:54.910Z,95901.53
2022-08-05T10:35:01.049Z,95893.75
2022-08-05T10:37:37.477Z,95899.13
2022-08-05T10:40:35.728Z,95896.69
2022-08-05T10:43:36.452Z,95894.88
2022-08-05T10:46:08.749Z,95899.44
2022-08-05T10:48:57.990Z,95898.63
2022-08-05T10:51:57.699Z,95886.75
2022-08-05T10:55:06.326Z,95887.97
2022-08-05T10:57:34.237Z,95894.81
2022-08-05T11:00:24.495Z,95895.84
2022-08-05T11:03:23.448Z,95888.72
2022-08-05T11:06:14.579Z,95885.75
2022-08-05T11:09:18.609Z,95887.22
2022-08-05T11:11:53.977Z,95883.50
2022-08-05T11:15:01.397Z,95886.13
2022-08-05T11:18:00.279Z,95881.72
2022-08-05T11:20:37.403Z,95872.13
2022-08-05T11:24:05.259Z,95874.56
2022-08-05T11:26:38.123Z,95878.75
2022-08-05T11:29:13.345Z,95880.09
2022-08-05T11:31:58.204Z,95879.41
2022-08-05T11:34:38.857Z,95879.25
2022-08-05T11:38:26.423Z,95874.56
2022-08-05T11:40:00.550Z,95874.50
2022-08-05T11:42:37.898Z,95872.59
2022-08-05T11:45:14.323Z,95877.44
2022-08-05T11:47:55.143Z,95873.34
2022-08-05T11:50:22.710Z,95875.50
2022-08-05T11:52:53.184Z,95874.00
2022-08-05T11:55:24.173Z,95871.28
2022-08-05T11:58:10.146Z,95865.28
2022-08-05T12:00:39.006Z,95870.03
2022-08-05T12:03:31.374Z,95864.16
2022-08-05T12:06:06.125Z,95868.88
2022-08-05T12:08:52.491Z,95870.84
2022-08-05T12:11:23.866Z,95866.94
2022-08-05T12:13:58.691Z,95858.56
2022-08-05T12:16:29.345Z,95855.69
2022-08-05T12:18:56.146Z,95865.44
2022-08-05T12:21:29.962Z,95859.25
2022-08-05T12:24:11.963Z,95853.47
2022-08-05T12:26:43.867Z,95861.25
2022-08-05T12:29:16.230Z,95861.09
2022-08-05T12:31:53.845Z,95853.00
2022-08-05T12:34:30.127Z,95850.72
2022-08-05T12:37:10.885Z,95848.09
2022-08-05T12:39:48.496Z,95850.88
2022-08-05T12:42:19.795Z,95843.25
2022-08-05T12:44:47.631Z,95839.97
2022-08-05T12:47:26.911Z,95849.91
2022-08-05T12:50:03.016Z,95851.66
2022-08-05T12:52:41.820Z,95847.28
2022-08-05T12:55:25.680Z,95836.44
2022-08-05T12:58:49.716Z,95830.91
2022-08-05T13:02:00.355Z,95838.56
2022-08-05T13:03:32.386Z,95834.47
2022-08-05T13:06:00.863Z,95832.50
2022-08-05T13:08:32.295Z,95833.53
2022-08-05T13:11:02.421Z,95832.50
2022-08-05T13:14:05.324Z,95833.69
2022-08-05T13:16:20.355Z,95838.22
2022-08-05T13:18:57.901Z,95829.44
2022-08-05T13:21:28.160Z,95814.97
2022-08-05T13:24:05.789Z,95820.50
2022-08-05T13:26:35.433Z,95818.41
2022-08-05T13:29:02.171Z,95807.50
2022-08-05T13:32:02.827Z,95810.94
2022-08-05T13:34:21.666Z,95812.56
2022-08-05T13:36:53.948Z,95808.16
2022-08-05T13:39:24.800Z,95802.81
2022-08-05T13:42:14.434Z,95796.97
2022-08-05T13:44:45.499Z,95799.38
2022-08-05T13:47:36.168Z,95794.38
2022-08-05T13:50:04.519Z,95793.22
2022-08-05T13:52:35.473Z,95786.75
2022-08-05T13:55:07.799Z,95788.84
2022-08-05T13:57:48.742Z,95785.59
2022-08-05T14:00:27.343Z,95785.75
2022-08-05T14:02:57.544Z,95784.16
2022-08-05T14:05:47.929Z,95774.72
2022-08-05T14:08:20.809Z,95783.97
2022-08-05T14:10:48.782Z,95787.09
2022-08-05T14:13:15.779Z,95789.38
2022-08-05T14:16:05.017Z,95783.97
2022-08-05T14:18:29.623Z,95786.88
2022-08-05T14:20:56.306Z,95791.75
2022-08-05T14:23:26.016Z,95782.84
2022-08-05T14:25:58.677Z,95775.00
2022-08-05T14:28:28.146Z,95769.63
2022-08-05T14:30:55.899Z,95780.13
2022-08-05T14:33:23.917Z,95780.47
2022-08-05T14:35:54.323Z,95783.06
2022-08-05T14:38:32.216Z,95787.66
2022-08-05T14:41:06.898Z,95800.34
2022-08-05T14:43:57.704Z,95806.78
2022-08-05T14:46:28.562Z,95798.97
2022-08-05T14:49:06.906Z,95804.81
2022-08-05T14:51:37.967Z,95802.00
2022-08-05T14:54:26.062Z,95807.19
2022-08-05T14:56:54.779Z,95810.59
2022-08-05T14:59:21.874Z,95819.00
2022-08-05T15:01:49.968Z,95825.63
2022-08-05T15:04:20.551Z,95834.06
2022-08-05T15:06:49.115Z,95838.47
2022-08-05T15:09:16.243Z,95838.13
2022-08-05T15:12:03.906Z,95842.25
2022-08-05T15:14:35.097Z,95839.88
2022-08-05T15:17:44.690Z,95850.97
2022-08-05T15:19:56.987Z,95840.06
2022-08-05T15:22:27.010Z,95848.13
2022-08-05T15:24:56.224Z,95844.56
2022-08-05T15:27:25.425Z,95844.84
2022-08-05T15:29:54.224Z,95859.34
2022-08-05T15:32:27.275Z,95856.72
2022-08-05T15:34:56.208Z,95851.75
2022-08-05T15:38:33.253Z,95852.47
2022-08-05T15:40:59.540Z,95851.47
2022-08-05T15:43:09.192Z,95862.16
2022-08-05T15:45:45.687Z,95858.19
2022-08-05T15:48:14.120Z,95862.31
2022-08-05T15:50:43.748Z,95863.81
2022-08-05T15:53:12.761Z,95863.44
2022-08-05T15:56:04.172Z,95857.13
2022-08-05T15:58:28.586Z,95856.78
2022-08-05T16:01:11.643Z,95860.44
2022-08-05T16:03:43.105Z,95852.63
2022-08-05T16:06:11.530Z,95851.69
2022-08-05T16:08:38.593Z,95862.75
2022-08-05T16:11:05.407Z,95866.13
2022-08-05T16:13:34.915Z,95864.78
2022-08-05T16:16:03.521Z,95869.34
2022-08-05T16:18:33.069Z,95864.84
2022-08-05T16:21:04.173Z,95863.34
2022-08-05T16:23:32.852Z,95865.44
2022-08-05T16:26:18.954Z,95866.50
2022-08-05T16:28:53.176Z,95862.22
2022-08-05T16:31:21.528Z,95867.84
2022-08-05T16:33:48.751Z,95867.41
2022-08-05T16:36:20.496Z,95856.59
2022-08-05T16:38:54.503Z,95867.09
2022-08-05T16:42:15.105Z,95869.00
2022-08-05T16:44:14.140Z,95874.56
2022-08-05T16:46:55.899Z,95874.94
2022-08-05T16:49:23.125Z,95884.31
2022-08-05T16:51:51.396Z,95883.56
2022-08-05T16:54:27.511Z,95885.28
2022-08-05T16:56:58.737Z,95887.31
2022-08-05T16:59:27.805Z,95886.28
2022-08-05T17:01:57.531Z,95885.75
2022-08-05T17:04:28.230Z,95892.13
2022-08-05T17:07:00.217Z,95886.97
2022-08-05T17:09:38.907Z,95893.88
2022-08-05T17:12:17.605Z,95891.47
2022-08-05T17:14:49.612Z,95894.81
2022-08-05T17:17:16.519Z,95901.97
2022-08-05T17:19:46.606Z,95896.03
2022-08-05T17:22:25.459Z,95899.38
2022-08-05T17:24:56.835Z,95904.38
2022-08-05T17:27:26.088Z,95912.63
2022-08-05T17:30:00.630Z,95917.34
2022-08-05T17:32:29.527Z,95923.69
2022-08-05T17:34:58.233Z,95926.97
2022-08-05T17:37:39.539Z,95931.94
2022-08-05T17:40:14.543Z,95928.44
2022-08-05T17:42:49.670Z,95935.88
2022-08-05T17:45:21.177Z,95934.81
2022-08-05T17:47:54.490Z,95926.63
2022-08-05T17:50:28.375Z,95935.94
2022-08-05T17:52:59.211Z,95935.16
2022-08-05T17:55:34.137Z,95929.44
2022-08-05T17:58:06.975Z,95938.50
2022-08-05T18:00:36.309Z,95931.66
2022-08-05T18:03:08.018Z,95929.22
2022-08-05T18:05:36.088Z,95933.34
2022-08-05T18:08:03.495Z,95930.91
2022-08-05T18:10:32.260Z,95931.75
2022-08-05T18:13:00.357Z,95924.13
2022-08-05T18:15:31.231Z,95924.97
2022-08-05T18:18:05.770Z,95920.88
2022-08-05T18:20:38.005Z,95910.50
2022-08-05T18:23:08.966Z,95916.53
2022-08-05T18:25:39.050Z,95921.19
2022-08-05T18:28:06.879Z,95913.03
2022-08-05T18:30:34.652Z,95912.22
2022-08-05T18:33:01.886Z,95906.78
2022-08-05T18:35:59.952Z,95901.88
2022-08-05T18:38:19.058Z,95900.28
2022-08-05T18:41:57.397Z,95892.34
2022-08-05T18:43:42.776Z,95898.66
2022-08-05T18:46:15.357Z,95896.78
2022-08-05T18:48:42.184Z,95900.34
2022-08-05T18:52:03.889Z,95902.28
2022-08-05T18:54:15.130Z,95896.00
2022-08-05T18:56:51.042Z,95893.25
2022-08-05T18:59:44.082Z,95891.09
2022-08-05T19:02:11.211Z,95898.22
2022-08-05T19:05:01.335Z,95902.03
2022-08-05T19:07:45.613Z,95911.34
2022-08-05T19:10:14.797Z,95914.88
2022-08-05T19:12:41.712Z,95929.38
2022-08-05T19:15:25.142Z,95948.19
2022-08-05T19:18:08.298Z,95951.19
2022-08-05T19:20:36.818Z,95959.94
2022-08-05T19:23:07.903Z,95956.41
2022-08-05T19:25:38.167Z,95967.31
2022-08-05T19:28:06.030Z,95968.66
2022-08-05T19:30:32.721Z,95977.94
2022-08-05T19:32:59.428Z,95987.75
2022-08-05T19:35:26.104Z,95987.75
2022-08-05T19:38:12.788Z,95984.47
2022-08-05T19:40:43.831Z,95991.03
2022-08-05T19:43:10.661Z,95987.47
2022-08-05T19:45:57.373Z,95999.69
2022-08-05T19:48:24.058Z,96006.56
2022-08-05T19:50:52.417Z,96000.81
2022-08-05T19:54:04.261Z,95996.97
2022-08-05T19:56:14.452Z,96003.78
2022-08-05T19:58:53.750Z,96003.50
2022-08-05T20:01:28.194Z,96004.88
2022-08-05T20:03:55.501Z,96004.00
2022-08-05T20:06:23.386Z,96010.28
2022-08-05T20:08:56.211Z,96014.91
2022-08-05T20:11:24.303Z,96021.69
2022-08-05T20:13:58.070Z,96017.03
2022-08-05T20:16:25.808Z,96013.72
2022-08-05T20:18:55.574Z,96012.09
2022-08-05T20:21:22.989Z,96019.44
2022-08-05T20:23:53.263Z,96019.09
2022-08-05T20:26:26.897Z,96022.31
2022-08-05T20:28:56.925Z,96022.88
2022-08-05T20:31:28.584Z,96015.16
2022-08-05T20:34:10.239Z,96018.97
2022-08-05T20:36:37.016Z,96024.38
2022-08-05T20:39:13.027Z,96021.88
2022-08-05T20:41:43.124Z,96030.00
2022-08-05T20:44:19.257Z,96027.25
2022-08-05T20:46:57.341Z,96025.06
2022-08-05T20:49:25.807Z,96022.59
2022-08-05T20:51:54.211Z,96021.78
2022-08-05T20:54:22.164Z,96027.19
2022-08-05T20:56:49.177Z,96021.19
2022-08-05T20:59:26.729Z,96024.44
2022-08-05T21:01:57.187Z,96021.94
2022-08-05T21:04:27.002Z,96022.97
2022-08-05T21:06:54.523Z,96021.81
2022-08-05T21:09:22.883Z,96022.34
2022-08-05T21:12:07.479Z,96017.97
2022-08-05T21:14:37.789Z,96023.09
2022-08-05T21:17:05.403Z,96014.59
2022-08-05T21:19:47.629Z,96018.66
2022-08-05T21:22:21.730Z,96027.34
2022-08-05T21:24:51.605Z,96019.97
2022-08-05T21:27:25.232Z,96021.31
2022-08-05T21:29:56.156Z,96021.00
2022-08-05T21:32:27.587Z,96016.34
2022-08-05T21:35:16.865Z,96022.00
2022-08-05T21:37:47.150Z,96012.97
2022-08-05T21:40:20.615Z,96022.09
2022-08-05T21:42:47.614Z,96026.66
2022-08-05T21:45:24.831Z,96023.34
2022-08-05T21:48:06.571Z,96026.81
2022-08-05T21:50:37.289Z,96027.88
2022-08-05T21:53:17.730Z,96035.16
2022-08-05T21:56:04.608Z,96035.94
2022-08-05T21:58:32.477Z,96029.59
2022-08-05T22:00:59.730Z,96033.91
2022-08-05T22:03:52.580Z,96030.91
2022-08-05T22:06:14.432Z,96038.97
2022-08-05T22:08:42.831Z,96031.56
2022-08-05T22:11:12.752Z,96032.94
2022-08-05T22:14:32.329Z,96032.09
2022-08-05T22:16:41.706Z,96036.63
2022-08-05T22:20:00.389Z,96037.41
2022-08-05T22:22:03.143Z,96038.41
2022-08-05T22:24:52.054Z,96035.09
2022-08-05T22:28:09.825Z,96031.25
2022-08-05T22:30:24.957Z,96034.47
2022-08-05T22:32:59.444Z,96032.25
2022-08-05T22:35:26.415Z,96039.00
2022-08-05T22:37:59.669Z,96036.22
2022-08-05T22:40:27.171Z,96038.38
2022-08-05T22:42:58.245Z,96042.84
2022-08-05T22:45:26.474Z,96036.06
2022-08-05T22:47:55.323Z,96045.28
2022-08-05T22:50:26.543Z,96043.88
2022-08-05T22:52:54.015Z,96046.00
2022-08-05T22:55:22.691Z,96057.63
2022-08-05T22:57:51.486Z,96060.59
2022-08-05T23:00:21.113Z,96057.53
2022-08-05T23:02:49.195Z,96055.88
2022-08-05T23:05:16.779Z,96047.75
2022-08-05T23:07:45.301Z,96051.78
2022-08-05T23:10:20.137Z,96052.88
2022-08-05T23:12:51.519Z,96041.41
2022-08-05T23:15:22.336Z,96043.50
2022-08-05T23:18:00.510Z,96044.56
2022-08-05T23:20:37.316Z,96054.84
2022-08-05T23:23:08.019Z,96050.13
2022-08-05T23:25:51.257Z,96044.63
2022-08-05T23:28:20.441Z,96046.28
2022-08-05T23:30:53.174Z,96048.91
2022-08-05T23:33:22.491Z,96047.25
2022-08-05T23:36:10.150Z,96046.59
2022-08-05T23:38:37.278Z,96052.50
2022-08-05T23:41:04.038Z,96047.31
2022-08-05T23:44:04.319Z,96048.84
2022-08-05T23:46:19.590Z,96051.44
2022-08-05T23:49:00.658Z,96051.13
2022-08-05T23:51:53.647Z,96047.13
2022-08-05T23:54:36.530Z,96054.31
2022-08-05T23:57:06.724Z,96048.88
